الصفحة الرئيسية
METAR-TAF:

METAR-TAF

مطار :

مطار كريستيانو رونالدو

فونشال, جزر ماديرا, البرتغال

دائرة عرض: 32-41-52N, خط طول: 016-46-28W, ارتفاع: 59 متر

مراقبة الطقس الحالي

تاريخ ووقت الإصدار 29 دقيقة قبل الساعة 11:30UTC
ريح 12 عقدة من الشمال/الشمال الشرقي
درجة الحرارة 20°درجة مئوية
الرطوبة 56%
ضغط 1023 hPa
الرؤية 10 كم أو أكثر
غيوم متفرقة على ارتفاع 1600 قدم
غيوم متفرقة على ارتفاع 4000 قدم

METAR: LPMA 271130Z 03012KT 9999 SCT016 SCT040 20/11 Q1023

زمن: 12:59 (11:59 UTC)

توقعات

تاريخ ووقت الإصدار 59 دقيقة قبل الساعة 11:00UTC
التوقعات صالحة من27 الساعة 12 UTC إلى 28 الساعة 12 UTC
ريح 12 عقدة من الشمال
الرؤية 10 كم أو أكثر
غيوم متفرقة على ارتفاع 1600 قدم
غيوم متفرقة على ارتفاع 3500 قدم
نظرية الاحتمالات 40% :
مؤقت
من 27 الساعة 12 UTC إلى 28 الساعة 12 UTC
ريح 17 عقدة من الشمال تتزايد حتى 27 عقدة

TAF: LPMA 271100Z 2712/2812 01012KT 9999 SCT016 SCT035 PROB40 TEMPO 2712/2812 36017G27KT

أرصاد الطقس والتوقعات من أكثر من 4000 مطار (تقارير الطقس للمطار METAR والتنبؤ بالطقس بالمطارTAF).

المحطات المتاحة هي النقط الصفراء والحمراء على الخريطة.

حرك المؤشر فوق النقطة لمعرفة اسم المحطة.

ثم انقر لمعرفة أرصاد وتوقعات الطقس.

لتغيير الخارطة: اضغط على الأزرار الخضراء مع رمز الصليب الأسود للتكبير. على الزر الأخضر مع شرطة للتصغير، أو على الأسهم الخضراء للخرائط المجاورة.


METAR-TAF: